Latest Coastal Weather Observations for Cape Moreton

IDQ60701

Issued at 2:32 pm EST Tuesday 26 May 2020 (issued every 10 minutes, with the page automatically refreshed every 10 minutes)

About coastal observations | Map of coastal stations | Coastal observations for QLD | Marine services | Other Formats
Station Details ID: 040043 Name: CAPE MORETON LIGHTHOUSE Lat: -27.03 Lon: 153.47 Height: 99.9 m
Data from the previous 72 hours. | See also: Recent months at Cape Moreton
Date/Time
EST
Wind Sea
Height
m
Swell Vis
km
Cloud Weather Temp
°C
Press
hPa
Rain since
9am
mm
Dir  Spd
kts
Gust
kts
Height
m
Period
s
Dir
26/02:30pm NE 3 7 - - - - - - - 20.9 1016.4 0.0
26/02:00pm E 4 5 - - - - - - - 21.0 1016.3 0.0
26/01:30pm E 5 6 - - - - - - - 20.8 1016.3 0.0
26/01:00pm ESE 5 6 - - - - - - - 21.4 1016.6 0.0
26/12:30pm SE 6 7 - - - - - - - 21.0 1016.7 0.0
26/12:00pm WSW 5 7 - - - - - - - 20.6 1017.3 0.0
26/11:30am WSW 6 9 - - - - - - - 20.5 1017.5 0.0
26/11:00am WSW 8 11 - - - - - - - 19.2 1017.8 0.0
26/10:30am WSW 10 14 - - - - - - - 18.5 1018.2 0.0
26/10:00am W 12 15 - - - - - - - 17.7 1018.2 0.0
26/09:30am W 10 14 - - - - - - - 17.3 1018.4 0.0
26/09:00am WSW 11 15 - - - - - - - 17.0 1018.4 0.0
26/08:30am WSW 11 15 - - - - - - - 16.2 1018.3 0.0
26/08:00am WSW 11 15 - - - - - - - 15.6 1018.3 0.0
26/07:30am WSW 11 14 - - - - - - - 14.9 1017.9 0.0
26/07:00am WSW 12 15 - - - - - - - 14.5 1017.4 0.0
26/06:30am WSW 12 15 - - - - - - - 14.3 1017.0 0.0
26/06:00am WSW 12 14 - - - - - - - 14.5 1016.6 0.0
26/05:30am WSW 12 15 - - - - - - - 14.6 1016.4 0.0
26/05:00am WSW 11 15 - - - - - - - 14.6 1016.3 0.0
26/04:30am WSW 11 14 - - - - - - - 14.9 1016.1 0.0
26/04:00am WSW 13 16 - - - - - - - 15.3 1016.0 0.0
26/03:30am WSW 12 15 - - - - - - - 15.3 1016.0 0.0
26/03:00am WSW 12 14 - - - - - - - 15.5 1016.0 0.0
26/02:30am W 13 16 - - - - - - - 16.2 1016.2 0.0
26/02:00am W 13 16 - - - - - - - 16.5 1016.2 0.0
26/01:30am W 11 15 - - - - - - - 16.6 1016.4 0.0
26/01:00am W 12 16 - - - - - - - 17.0 1016.5 0.0
26/12:30am W 12 16 - - - - - - - 17.3 1016.4 0.0
26/12:00am W 12 15 - - - - - - - 17.6 1016.3 0.0
 
Date/Time
EST
Wind Sea
Height
m
Swell Vis
km
Cloud Weather Temp
°C
Press
hPa
Rain since
9am
mm
Dir  Spd
kts
Gust
kts
Height
m
Period
s
Dir
25/11:30pm W 11 15 - - - - - - - 17.5 1016.3 0.0
25/11:00pm WNW 12 16 - - - - - - - 18.1 1016.0 0.0
25/10:30pm NW 12 17 - - - - - - - 18.5 1016.1 0.0
25/10:00pm WNW 11 15 - - - - - - - 18.3 1016.2 0.0
25/09:30pm NW 11 17 - - - - - - - 18.9 1016.3 0.0
25/09:00pm NW 12 16 - - - - - - - 19.1 1016.1 0.0
25/08:30pm NW 12 16 - - - - - - - 19.1 1015.9 0.0
25/08:00pm NNW 10 13 - - - - - - - 19.0 1015.7 0.0
25/07:30pm NNW 9 13 - - - - - - - 18.8 1015.6 0.0
25/07:00pm NNW 8 10 - - - - - - - 18.8 1015.5 0.0
25/06:30pm N 8 11 - - - - - - - 18.8 1015.3 0.0
25/06:00pm NNE 7 9 - - - - - - - 18.5 1014.9 0.0
25/05:30pm NE 5 7 - - - - - - - 18.5 1014.5 0.0
25/05:00pm NE 6 8 - - - - - - - 18.6 1014.4 0.0
25/04:30pm NNE 6 7 - - - - - - - 18.9 1014.2 0.0
25/04:00pm NNE 5 7 - - - - - - - 19.7 1014.2 0.0
25/03:30pm ENE 3 5 - - - - - - - 19.7 1013.9 0.0
25/03:00pm ESE 5 6 - - - - - - - 19.7 1013.7 0.0
25/02:30pm SE 5 7 - - - - - - - 20.2 1013.7 0.0
25/02:00pm SSE 8 10 - - - - - - - 20.1 1013.6 0.0
25/01:30pm SSE 9 11 - - - - - - - 20.0 1013.6 0.0
25/01:00pm SSE 8 11 - - - - - - - 20.3 1013.6 0.0
25/12:30pm SSE 7 11 - - - - - - - 20.4 1013.8 0.0
25/12:00pm SSE 9 12 - - - - - - - 20.2 1014.2 0.0
25/11:30am S 7 11 - - - - - - - 20.8 1014.5 0.0
25/11:00am SSW 6 10 - - - - - - - 20.6 1014.9 0.0
25/10:30am SW 7 11 - - - - - - - 19.9 1015.0 0.0
25/10:00am SW 8 11 - - - - - - - 19.2 1015.3 0.0
25/09:30am SW 7 11 - - - - - - - 18.4 1015.4 0.0
25/09:00am SW 9 13 - - - - - - - 17.5 1015.4 0.0
25/08:30am SW 10 13 - - - - - - - 16.5 1015.2 0.0
25/08:00am SW 9 13 - - - - - - - 15.6 1014.8 0.0
25/07:30am SW 11 16 - - - - - - - 14.8 1014.2 0.0
25/07:00am SW 12 15 - - - - - - - 14.3 1013.6 0.0
25/06:30am SW 14 18 - - - - - - - 14.4 1013.3 0.0
25/06:00am WSW 14 17 - - - - - - - 14.1 1013.1 0.0
25/05:30am WSW 15 19 - - - - - - - 13.7 1012.6 0.0
25/05:00am WSW 14 19 - - - - - - - 13.6 1012.7 0.0
25/04:30am WSW 15 20 - - - - - - - 13.7 1012.4 0.0
25/04:00am WSW 14 19 - - - - - - - 13.7 1012.0 0.0
25/03:30am WSW 14 18 - - - - - - - 13.8 1012.0 0.0
25/03:00am W 15 20 - - - - - - - 14.0 1012.0 0.0
25/02:30am WSW 14 18 - - - - - - - 13.9 1011.9 0.0
25/02:00am WSW 12 16 - - - - - - - 13.9 1012.1 0.0
25/01:30am WSW 11 16 - - - - - - - 14.3 1012.2 0.0
25/01:00am WSW 9 13 - - - - - - - 14.2 1012.2 0.0
25/12:30am WSW 9 13 - - - - - - - 13.8 1012.1 0.0
25/12:00am WSW 11 15 - - - - - - - 14.1 1012.1 0.0
 
Date/Time
EST
Wind Sea
Height
m
Swell Vis
km
Cloud Weather Temp
°C
Press
hPa
Rain since
9am
mm
Dir  Spd
kts
Gust
kts
Height
m
Period
s
Dir
24/11:30pm WSW 12 18 - - - - - - - 14.1 1012.1 0.0
24/11:00pm WSW 15 19 - - - - - - - 14.0 1012.1 0.0
24/10:30pm WSW 15 21 - - - - - - - 14.1 1012.1 0.0
24/10:00pm WSW 14 19 - - - - - - - 14.2 1012.2 0.0
24/09:30pm WSW 16 22 - - - - - - - 14.4 1012.1 0.0
24/09:00pm WSW 15 21 - - - - - - - 14.5 1011.7 0.0
24/08:30pm WSW 15 20 - - - - - - - 14.5 1011.4 0.0
24/08:00pm W 15 21 - - - - - - - 14.9 1011.0 0.0
24/07:30pm W 14 21 - - - - - - - 15.0 1011.2 0.0
24/07:00pm W 13 17 - - - - - - - 15.1 1010.9 0.0
24/06:30pm W 12 18 - - - - - - - 15.1 1010.9 0.0
24/06:00pm WSW 11 15 - - - - - - - 15.0 1010.5 0.0
24/05:30pm WSW 13 21 - - - - - - - 15.2 1010.3 0.0
24/05:00pm WSW 13 18 - - - - - - - 15.9 1010.0 0.0
24/04:30pm WSW 10 14 - - - - - - - 16.8 1009.7 0.0
24/04:00pm WSW 10 14 - - - - - - - 17.4 1009.2 0.0
24/03:30pm WSW 12 17 - - - - - - - 17.7 1008.9 0.0
24/03:00pm WSW 12 16 - - - - - - - 17.8 1008.9 0.0
24/02:30pm WSW 11 16 - - - - - - - 18.1 1009.0 0.0
24/02:00pm WSW 12 19 - - - - - - - 17.6 1009.2 0.0
24/01:30pm WSW 12 18 - - - - - - - 17.4 1009.2 0.0
24/01:00pm WSW 13 18 - - - - - - - 16.9 1009.3 0.0
24/12:30pm WSW 12 16 - - - - - - - 17.1 1009.5 0.0
24/12:00pm WSW 12 19 - - - - - - - 16.6 1010.0 0.0
24/11:30am WSW 13 19 - - - - - - - 15.9 1010.2 0.0
24/11:00am WSW 13 18 - - - - - - - 15.4 1010.4 0.0
24/10:30am WSW 17 23 - - - - - - - 15.0 1010.3 0.0
24/10:00am WSW 16 23 - - - - - - - 14.3 1010.4 0.0
24/09:30am WSW 15 24 - - - - - - - 13.8 1010.3 0.0
24/09:18am WSW 15 26 - - - - - - - 13.6 1010.2 0.0
24/09:00am WSW 16 24 - - - - - - - 13.4 1010.2 0.0
24/08:30am WSW 16 21 - - - - - - - 12.8 1010.0 0.0
24/08:00am WSW 17 25 - - - - - - - 12.4 1009.8 0.0
24/07:30am WSW 17 24 - - - - - - - 12.0 1009.8 0.0
24/07:00am WSW 15 23 - - - - - - - 11.5 1009.8 0.0
24/06:30am WSW 14 22 - - - - - - - 11.1 1009.4 0.0
24/06:00am WSW 17 25 - - - - - - - 11.2 1008.9 0.0
24/05:30am WSW 17 23 - - - - - - - 11.1 1008.7 0.0
24/05:00am WSW 17 25 - - - - - - - 11.1 1008.5 0.0
24/04:30am WSW 17 21 - - - - - - - 10.9 1008.4 0.0
24/04:00am WSW 16 22 - - - - - - - 11.1 1008.5 0.0
24/03:30am WSW 17 23 - - - - - - - 11.2 1008.4 0.0
24/03:00am WSW 16 22 - - - - - - - 11.3 1008.7 0.0
24/02:41am WSW 15 25 - - - - - - - 11.5 1008.9 0.0
24/02:30am WSW 17 23 - - - - - - - 11.6 1008.8 0.0
24/02:00am WSW 17 26 - - - - - - - 11.5 1009.2 0.0
24/01:30am WSW 17 25 - - - - - - - 11.5 1008.9 0.0
24/01:00am WSW 18 27 - - - - - - - 11.7 1009.0 0.0
24/12:32am WSW 18 28 - - - - - - - 11.9 1008.7 0.0
24/12:30am WSW 18 27 - - - - - - - 11.9 1008.8 0.0
24/12:29am WSW 17 27 - - - - - - - 11.9 1008.7 0.0
24/12:00am WSW 12 19 - - - - - - - 11.6 1009.0 0.0
 
Date/Time
EST
Wind Sea
Height
m
Swell Vis
km
Cloud Weather Temp
°C
Press
hPa
Rain since
9am
mm
Dir  Spd
kts
Gust
kts
Height
m
Period
s
Dir
23/11:30pm WSW 13 18 - - - - - - - 11.7 1009.4 0.0
23/11:00pm WSW 14 20 - - - - - - - 12.0 1009.6 0.0
23/10:30pm WSW 13 19 - - - - - - - 12.4 1010.2 0.0
23/10:00pm WSW 14 21 - - - - - - - 12.7 1010.5 0.0
23/09:30pm WSW 15 22 - - - - - - - 12.5 1009.4 0.0
23/09:00pm WSW 14 20 - - - - - - - 12.9 1010.4 0.0
23/08:30pm WSW 15 21 - - - - - - - 12.9 1009.7 0.0
23/08:00pm W 13 21 - - - - - - - 12.9 1008.6 0.0
23/07:30pm W 15 21 - - - - - - - 13.4 1009.4 0.0
23/07:00pm W 14 19 - - - - - - - 13.3 1008.9 0.0
23/06:30pm W 12 17 - - - - - - - 13.2 1009.3 0.0
23/06:00pm W 12 16 - - - - - - - 13.2 1009.1 0.0
23/05:30pm W 14 21 - - - - - - - 13.2 1009.3 0.0
23/05:00pm W 12 16 - - - - - - - 12.7 1008.8 0.0
23/04:30pm W 13 17 - - - - - - - 12.8 1008.5 0.0
23/04:00pm W 11 17 - - - - - - - 12.6 1008.6 0.0
23/03:30pm W 14 21 - - - - - - - 12.8 1008.7 0.0
23/03:00pm W 15 20 - - - - - - - 12.8 1009.6 0.0

Other formats

Comma delimited format used in spreadsheet applications
http://www.bom.gov.au/fwo/IDQ60701/IDQ60701.94594.axf

JavaScript Object Notation format (JSON) in row-major order
http://www.bom.gov.au/fwo/IDQ60701/IDQ60701.94594.json

Data quality

Most of these data are generated automatically and are frequently updated. Quality checks on data are not normally performed. It is possible for incorrect values to appear. Refer to information at About Latest Weather Observations and please check the disclaimer before using these data.